sensor_id;sensor_type;location;lat;lon;timestamp;temperature;humidity
23114;DHT22;11726;50.122;8.832;2023-10-09T00:01:05;13.80;99.90
23114;DHT22;11726;50.122;8.832;2023-10-09T00:03:50;13.90;99.90
23114;DHT22;11726;50.122;8.832;2023-10-09T00:06:20;13.80;99.90
23114;DHT22;11726;50.122;8.832;2023-10-09T00:08:57;13.80;99.90
23114;DHT22;11726;50.122;8.832;2023-10-09T00:11:24;13.80;99.90
23114;DHT22;11726;50.122;8.832;2023-10-09T00:13:56;13.80;99.90
23114;DHT22;11726;50.122;8.832;2023-10-09T00:16:27;13.90;99.90
23114;DHT22;11726;50.122;8.832;2023-10-09T00:19:01;13.80;99.90
23114;DHT22;11726;50.122;8.832;2023-10-09T00:21:41;13.80;99.90
23114;DHT22;11726;50.122;8.832;2023-10-09T00:24:08;13.80;99.90
23114;DHT22;11726;50.122;8.832;2023-10-09T00:26:43;13.80;99.90
23114;DHT22;11726;50.122;8.832;2023-10-09T00:29:15;13.80;99.90
23114;DHT22;11726;50.122;8.832;2023-10-09T00:31:52;13.80;99.90
23114;DHT22;11726;50.122;8.832;2023-10-09T00:34:30;13.80;99.90
23114;DHT22;11726;50.122;8.832;2023-10-09T00:37:07;13.80;99.90
23114;DHT22;11726;50.122;8.832;2023-10-09T00:39:43;13.80;99.90
23114;DHT22;11726;50.122;8.832;2023-10-09T00:42:11;13.80;99.90
23114;DHT22;11726;50.122;8.832;2023-10-09T00:44:41;13.80;99.90
23114;DHT22;11726;50.122;8.832;2023-10-09T00:47:11;13.70;99.90
23114;DHT22;11726;50.122;8.832;2023-10-09T00:49:59;13.70;99.90
23114;DHT22;11726;50.122;8.832;2023-10-09T00:52:32;13.70;99.90
23114;DHT22;11726;50.122;8.832;2023-10-09T00:55:07;13.80;99.90
23114;DHT22;11726;50.122;8.832;2023-10-09T00:57:43;13.70;99.90
23114;DHT22;11726;50.122;8.832;2023-10-09T01:00:24;13.70;99.90
23114;DHT22;11726;50.122;8.832;2023-10-09T01:03:16;13.70;99.90
23114;DHT22;11726;50.122;8.832;2023-10-09T01:08:22;13.60;99.90
23114;DHT22;11726;50.122;8.832;2023-10-09T01:11:16;13.50;99.90
23114;DHT22;11726;50.122;8.832;2023-10-09T01:13:49;13.50;99.90
23114;DHT22;11726;50.122;8.832;2023-10-09T01:16:21;13.50;99.90
23114;DHT22;11726;50.122;8.832;2023-10-09T01:18:54;13.50;99.90
23114;DHT22;11726;50.122;8.832;2023-10-09T01:21:23;13.50;99.90
23114;DHT22;11726;50.122;8.832;2023-10-09T01:23:52;13.50;99.90
23114;DHT22;11726;50.122;8.832;2023-10-09T01:26:40;13.50;99.90
23114;DHT22;11726;50.122;8.832;2023-10-09T01:29:16;13.40;99.90
23114;DHT22;11726;50.122;8.832;2023-10-09T01:31:50;13.40;99.90
23114;DHT22;11726;50.122;8.832;2023-10-09T01:34:29;13.30;99.90
23114;DHT22;11726;50.122;8.832;2023-10-09T01:37:10;13.30;99.90
23114;DHT22;11726;50.122;8.832;2023-10-09T01:39:53;13.30;99.90
23114;DHT22;11726;50.122;8.832;2023-10-09T01:42:25;13.40;99.90
23114;DHT22;11726;50.122;8.832;2023-10-09T01:44:52;13.40;99.90
23114;DHT22;11726;50.122;8.832;2023-10-09T01:47:18;13.30;99.90
23114;DHT22;11726;50.122;8.832;2023-10-09T01:49:46;13.30;99.90
23114;DHT22;11726;50.122;8.832;2023-10-09T01:52:15;13.40;99.90
23114;DHT22;11726;50.122;8.832;2023-10-09T01:54:47;13.30;99.90
23114;DHT22;11726;50.122;8.832;2023-10-09T01:57:18;13.20;99.90
23114;DHT22;11726;50.122;8.832;2023-10-09T01:59:52;13.10;99.90
23114;DHT22;11726;50.122;8.832;2023-10-09T02:02:22;13.00;99.90
23114;DHT22;11726;50.122;8.832;2023-10-09T02:05:02;13.10;99.90
23114;DHT22;11726;50.122;8.832;2023-10-09T02:07:36;13.10;99.90
23114;DHT22;11726;50.122;8.832;2023-10-09T02:10:22;13.20;99.90
23114;DHT22;11726;50.122;8.832;2023-10-09T02:13:02;13.30;99.90
23114;DHT22;11726;50.122;8.832;2023-10-09T02:15:35;13.20;99.90
23114;DHT22;11726;50.122;8.832;2023-10-09T02:18:09;13.20;99.90
23114;DHT22;11726;50.122;8.832;2023-10-09T02:20:53;13.20;99.90
23114;DHT22;11726;50.122;8.832;2023-10-09T02:23:23;13.20;99.90
23114;DHT22;11726;50.122;8.832;2023-10-09T02:25:57;13.30;99.90
23114;DHT22;11726;50.122;8.832;2023-10-09T02:28:24;13.20;99.90
23114;DHT22;11726;50.122;8.832;2023-10-09T02:30:51;13.20;99.90
23114;DHT22;11726;50.122;8.832;2023-10-09T02:33:18;13.20;99.90
23114;DHT22;11726;50.122;8.832;2023-10-09T02:35:47;13.20;99.90
23114;DHT22;11726;50.122;8.832;2023-10-09T02:38:17;13.20;99.90
23114;DHT22;11726;50.122;8.832;2023-10-09T02:40:44;13.20;99.90
23114;DHT22;11726;50.122;8.832;2023-10-09T02:43:40;13.20;99.90
23114;DHT22;11726;50.122;8.832;2023-10-09T02:46:22;13.20;99.90
23114;DHT22;11726;50.122;8.832;2023-10-09T02:48:59;13.20;99.90
23114;DHT22;11726;50.122;8.832;2023-10-09T02:51:30;13.10;99.90
23114;DHT22;11726;50.122;8.832;2023-10-09T02:54:03;13.00;99.90
23114;DHT22;11726;50.122;8.832;2023-10-09T02:56:35;13.10;99.90
23114;DHT22;11726;50.122;8.832;2023-10-09T02:59:14;13.00;99.90
23114;DHT22;11726;50.122;8.832;2023-10-09T03:01:41;13.00;99.90
23114;DHT22;11726;50.122;8.832;2023-10-09T03:04:08;13.00;99.90
23114;DHT22;11726;50.122;8.832;2023-10-09T03:06:38;12.90;99.90
23114;DHT22;11726;50.122;8.832;2023-10-09T03:09:12;12.90;99.90
23114;DHT22;11726;50.122;8.832;2023-10-09T03:11:47;12.80;99.90
23114;DHT22;11726;50.122;8.832;2023-10-09T03:14:14;12.80;99.90
23114;DHT22;11726;50.122;8.832;2023-10-09T03:16:43;12.80;99.90
23114;DHT22;11726;50.122;8.832;2023-10-09T03:19:10;12.80;99.90
23114;DHT22;11726;50.122;8.832;2023-10-09T03:21:37;12.80;99.90
23114;DHT22;11726;50.122;8.832;2023-10-09T03:24:04;12.80;99.90
23114;DHT22;11726;50.122;8.832;2023-10-09T03:26:33;12.90;99.90
23114;DHT22;11726;50.122;8.832;2023-10-09T03:29:00;12.90;99.90
23114;DHT22;11726;50.122;8.832;2023-10-09T03:31:33;12.80;99.90
23114;DHT22;11726;50.122;8.832;2023-10-09T03:34:00;12.80;99.90
23114;DHT22;11726;50.122;8.832;2023-10-09T03:36:26;12.80;99.90
23114;DHT22;11726;50.122;8.832;2023-10-09T03:38:53;12.80;99.90
23114;DHT22;11726;50.122;8.832;2023-10-09T03:41:22;12.80;99.90
23114;DHT22;11726;50.122;8.832;2023-10-09T03:43:50;12.80;99.90
23114;DHT22;11726;50.122;8.832;2023-10-09T03:46:17;12.80;99.90
23114;DHT22;11726;50.122;8.832;2023-10-09T03:48:48;12.90;99.90
23114;DHT22;11726;50.122;8.832;2023-10-09T03:51:15;12.90;99.90
23114;DHT22;11726;50.122;8.832;2023-10-09T03:53:49;13.00;99.90
23114;DHT22;11726;50.122;8.832;2023-10-09T03:56:17;13.00;99.90
23114;DHT22;11726;50.122;8.832;2023-10-09T03:58:48;13.00;99.90
23114;DHT22;11726;50.122;8.832;2023-10-09T04:01:20;13.00;99.90
23114;DHT22;11726;50.122;8.832;2023-10-09T04:04:05;13.10;99.90
23114;DHT22;11726;50.122;8.832;2023-10-09T04:06:33;13.10;99.90
23114;DHT22;11726;50.122;8.832;2023-10-09T04:09:06;13.20;99.90
23114;DHT22;11726;50.122;8.832;2023-10-09T04:11:59;13.20;99.90
23114;DHT22;11726;50.122;8.832;2023-10-09T04:14:39;13.30;99.90
23114;DHT22;11726;50.122;8.832;2023-10-09T04:17:35;13.30;99.90
23114;DHT22;11726;50.122;8.832;2023-10-09T04:20:04;13.30;99.90
23114;DHT22;11726;50.122;8.832;2023-10-09T04:22:46;13.30;99.90
23114;DHT22;11726;50.122;8.832;2023-10-09T04:25:26;13.20;99.90
23114;DHT22;11726;50.122;8.832;2023-10-09T04:27:56;13.20;99.90
23114;DHT22;11726;50.122;8.832;2023-10-09T04:30:40;13.20;99.90
23114;DHT22;11726;50.122;8.832;2023-10-09T04:33:10;13.20;99.90
23114;DHT22;11726;50.122;8.832;2023-10-09T04:36:06;13.20;99.90
23114;DHT22;11726;50.122;8.832;2023-10-09T04:38:51;13.20;99.90
23114;DHT22;11726;50.122;8.832;2023-10-09T04:41:31;13.20;99.90
23114;DHT22;11726;50.122;8.832;2023-10-09T04:44:10;13.20;99.90
23114;DHT22;11726;50.122;8.832;2023-10-09T04:46:50;13.10;99.90
23114;DHT22;11726;50.122;8.832;2023-10-09T04:49:40;13.10;99.90
23114;DHT22;11726;50.122;8.832;2023-10-09T04:52:19;13.10;99.90
23114;DHT22;11726;50.122;8.832;2023-10-09T04:55:07;13.20;99.90
23114;DHT22;11726;50.122;8.832;2023-10-09T05:00:06;13.10;99.90
23114;DHT22;11726;50.122;8.832;2023-10-09T05:02:33;13.10;99.90
23114;DHT22;11726;50.122;8.832;2023-10-09T05:05:04;13.10;99.90
23114;DHT22;11726;50.122;8.832;2023-10-09T05:08:03;13.00;99.90
23114;DHT22;11726;50.122;8.832;2023-10-09T05:10:51;13.00;99.90
23114;DHT22;11726;50.122;8.832;2023-10-09T05:13:31;13.00;99.90
23114;DHT22;11726;50.122;8.832;2023-10-09T05:16:15;13.00;99.90
23114;DHT22;11726;50.122;8.832;2023-10-09T05:18:47;13.00;99.90
23114;DHT22;11726;50.122;8.832;2023-10-09T05:21:31;13.10;99.90
23114;DHT22;11726;50.122;8.832;2023-10-09T05:23:59;13.10;99.90
23114;DHT22;11726;50.122;8.832;2023-10-09T05:26:49;13.10;99.90
23114;DHT22;11726;50.122;8.832;2023-10-09T05:29:17;13.00;99.90
23114;DHT22;11726;50.122;8.832;2023-10-09T05:32:04;13.00;99.90
23114;DHT22;11726;50.122;8.832;2023-10-09T05:34:54;13.00;99.90
23114;DHT22;11726;50.122;8.832;2023-10-09T05:37:29;13.00;99.90
23114;DHT22;11726;50.122;8.832;2023-10-09T05:40:01;13.00;99.90
23114;DHT22;11726;50.122;8.832;2023-10-09T05:42:33;13.10;99.90
23114;DHT22;11726;50.122;8.832;2023-10-09T05:45:15;13.20;99.90
23114;DHT22;11726;50.122;8.832;2023-10-09T05:47:50;13.20;99.90
23114;DHT22;11726;50.122;8.832;2023-10-09T05:50:21;13.20;99.90
23114;DHT22;11726;50.122;8.832;2023-10-09T05:52:57;13.20;99.90
23114;DHT22;11726;50.122;8.832;2023-10-09T05:55:31;13.20;99.90
23114;DHT22;11726;50.122;8.832;2023-10-09T05:58:16;13.10;99.90
23114;DHT22;11726;50.122;8.832;2023-10-09T06:01:02;13.20;99.90
23114;DHT22;11726;50.122;8.832;2023-10-09T06:03:52;13.20;99.90
23114;DHT22;11726;50.122;8.832;2023-10-09T06:06:22;13.10;99.90
23114;DHT22;11726;50.122;8.832;2023-10-09T06:09:08;13.20;99.90
23114;DHT22;11726;50.122;8.832;2023-10-09T06:11:45;13.20;99.90
23114;DHT22;11726;50.122;8.832;2023-10-09T06:14:19;13.20;99.90
23114;DHT22;11726;50.122;8.832;2023-10-09T06:17:12;13.20;99.90
23114;DHT22;11726;50.122;8.832;2023-10-09T06:19:41;13.30;99.90
23114;DHT22;11726;50.122;8.832;2023-10-09T06:22:10;13.30;99.90
23114;DHT22;11726;50.122;8.832;2023-10-09T06:24:56;13.30;99.90
23114;DHT22;11726;50.122;8.832;2023-10-09T06:27:24;13.30;99.90
23114;DHT22;11726;50.122;8.832;2023-10-09T06:29:52;13.30;99.90
23114;DHT22;11726;50.122;8.832;2023-10-09T06:32:40;13.30;99.90
23114;DHT22;11726;50.122;8.832;2023-10-09T06:35:18;13.40;99.90
23114;DHT22;11726;50.122;8.832;2023-10-09T06:38:10;13.40;99.90
23114;DHT22;11726;50.122;8.832;2023-10-09T06:40:50;13.50;99.90
23114;DHT22;11726;50.122;8.832;2023-10-09T06:43:48;13.50;99.90
23114;DHT22;11726;50.122;8.832;2023-10-09T06:46:19;13.60;99.90
23114;DHT22;11726;50.122;8.832;2023-10-09T06:49:06;13.60;99.90
23114;DHT22;11726;50.122;8.832;2023-10-09T06:51:53;13.70;99.90
23114;DHT22;11726;50.122;8.832;2023-10-09T06:54:22;13.70;99.90
23114;DHT22;11726;50.122;8.832;2023-10-09T06:56:52;13.70;99.90
23114;DHT22;11726;50.122;8.832;2023-10-09T06:59:19;13.70;99.90
23114;DHT22;11726;50.122;8.832;2023-10-09T07:01:50;13.80;99.90
23114;DHT22;11726;50.122;8.832;2023-10-09T07:04:36;13.90;99.90
23114;DHT22;11726;50.122;8.832;2023-10-09T07:07:03;14.00;99.90
23114;DHT22;11726;50.122;8.832;2023-10-09T07:09:36;14.00;99.90
23114;DHT22;11726;50.122;8.832;2023-10-09T07:12:10;14.10;99.90
23114;DHT22;11726;50.122;8.832;2023-10-09T07:14:41;14.10;99.90
23114;DHT22;11726;50.122;8.832;2023-10-09T07:17:08;14.20;99.90
23114;DHT22;11726;50.122;8.832;2023-10-09T07:20:12;14.20;99.90
23114;DHT22;11726;50.122;8.832;2023-10-09T07:22:41;14.40;99.90
23114;DHT22;11726;50.122;8.832;2023-10-09T07:25:23;14.50;99.90
23114;DHT22;11726;50.122;8.832;2023-10-09T07:28:09;14.60;99.90
23114;DHT22;11726;50.122;8.832;2023-10-09T07:30:56;14.60;99.90
23114;DHT22;11726;50.122;8.832;2023-10-09T07:33:24;14.70;99.90
23114;DHT22;11726;50.122;8.832;2023-10-09T07:36:01;14.70;99.90
23114;DHT22;11726;50.122;8.832;2023-10-09T07:38:32;14.80;99.90
23114;DHT22;11726;50.122;8.832;2023-10-09T07:41:02;14.80;99.90
23114;DHT22;11726;50.122;8.832;2023-10-09T07:43:38;14.90;99.90
23114;DHT22;11726;50.122;8.832;2023-10-09T07:46:06;14.90;99.90
23114;DHT22;11726;50.122;8.832;2023-10-09T07:48:52;14.90;99.90
23114;DHT22;11726;50.122;8.832;2023-10-09T07:51:19;14.90;99.90
23114;DHT22;11726;50.122;8.832;2023-10-09T07:53:59;14.90;99.90
23114;DHT22;11726;50.122;8.832;2023-10-09T07:56:37;14.90;99.90
23114;DHT22;11726;50.122;8.832;2023-10-09T07:59:14;14.90;99.90
23114;DHT22;11726;50.122;8.832;2023-10-09T08:01:46;15.00;99.90
23114;DHT22;11726;50.122;8.832;2023-10-09T08:04:23;15.00;99.90
23114;DHT22;11726;50.122;8.832;2023-10-09T08:07:09;15.10;99.90
23114;DHT22;11726;50.122;8.832;2023-10-09T08:09:56;15.20;99.90
23114;DHT22;11726;50.122;8.832;2023-10-09T08:12:42;15.20;99.90
23114;DHT22;11726;50.122;8.832;2023-10-09T08:15:18;15.40;99.90
23114;DHT22;11726;50.122;8.832;2023-10-09T08:17:51;15.50;99.90
23114;DHT22;11726;50.122;8.832;2023-10-09T08:20:23;15.50;99.90
23114;DHT22;11726;50.122;8.832;2023-10-09T08:22:53;15.60;99.90
23114;DHT22;11726;50.122;8.832;2023-10-09T08:25:23;15.60;99.90
23114;DHT22;11726;50.122;8.832;2023-10-09T08:27:58;15.60;99.90
23114;DHT22;11726;50.122;8.832;2023-10-09T08:30:48;15.70;99.90
23114;DHT22;11726;50.122;8.832;2023-10-09T08:33:21;15.60;99.90
23114;DHT22;11726;50.122;8.832;2023-10-09T08:35:56;15.60;99.90
23114;DHT22;11726;50.122;8.832;2023-10-09T08:38:32;15.60;99.90
23114;DHT22;11726;50.122;8.832;2023-10-09T08:41:10;15.60;99.90
23114;DHT22;11726;50.122;8.832;2023-10-09T08:43:47;15.70;99.90
23114;DHT22;11726;50.122;8.832;2023-10-09T08:46:23;15.70;99.90
23114;DHT22;11726;50.122;8.832;2023-10-09T08:48:56;15.70;99.90
23114;DHT22;11726;50.122;8.832;2023-10-09T08:51:28;15.70;99.90
23114;DHT22;11726;50.122;8.832;2023-10-09T08:53:56;15.80;99.90
23114;DHT22;11726;50.122;8.832;2023-10-09T08:56:23;15.80;99.90
23114;DHT22;11726;50.122;8.832;2023-10-09T09:01:18;15.90;99.90
23114;DHT22;11726;50.122;8.832;2023-10-09T09:03:49;16.00;99.90
23114;DHT22;11726;50.122;8.832;2023-10-09T09:06:18;16.10;99.90
23114;DHT22;11726;50.122;8.832;2023-10-09T09:08:46;16.30;99.90
23114;DHT22;11726;50.122;8.832;2023-10-09T09:11:15;16.50;99.90
23114;DHT22;11726;50.122;8.832;2023-10-09T09:14:09;16.60;99.90
23114;DHT22;11726;50.122;8.832;2023-10-09T09:16:48;16.70;99.90
23114;DHT22;11726;50.122;8.832;2023-10-09T09:19:15;16.70;99.90
23114;DHT22;11726;50.122;8.832;2023-10-09T09:21:50;16.80;99.90
23114;DHT22;11726;50.122;8.832;2023-10-09T09:24:21;16.90;99.90
23114;DHT22;11726;50.122;8.832;2023-10-09T09:26:49;16.90;99.90
23114;DHT22;11726;50.122;8.832;2023-10-09T09:29:51;16.80;99.90
23114;DHT22;11726;50.122;8.832;2023-10-09T09:32:28;16.90;99.90
23114;DHT22;11726;50.122;8.832;2023-10-09T09:35:02;16.90;99.90
23114;DHT22;11726;50.122;8.832;2023-10-09T09:37:34;16.90;99.90
23114;DHT22;11726;50.122;8.832;2023-10-09T09:40:21;16.90;99.90
23114;DHT22;11726;50.122;8.832;2023-10-09T09:43:02;16.90;99.90
23114;DHT22;11726;50.122;8.832;2023-10-09T09:45:36;17.00;99.90
23114;DHT22;11726;50.122;8.832;2023-10-09T09:48:04;17.10;99.90
23114;DHT22;11726;50.122;8.832;2023-10-09T09:50:37;17.20;99.90
23114;DHT22;11726;50.122;8.832;2023-10-09T09:53:16;17.20;99.90
23114;DHT22;11726;50.122;8.832;2023-10-09T09:55:51;17.40;99.90
23114;DHT22;11726;50.122;8.832;2023-10-09T09:58:25;17.40;99.90
23114;DHT22;11726;50.122;8.832;2023-10-09T10:01:02;17.50;99.90
23114;DHT22;11726;50.122;8.832;2023-10-09T10:03:51;17.60;99.90
23114;DHT22;11726;50.122;8.832;2023-10-09T10:06:20;17.70;99.90
23114;DHT22;11726;50.122;8.832;2023-10-09T10:08:48;17.70;99.90
23114;DHT22;11726;50.122;8.832;2023-10-09T10:11:44;17.70;99.90
23114;DHT22;11726;50.122;8.832;2023-10-09T10:14:12;17.80;99.90
23114;DHT22;11726;50.122;8.832;2023-10-09T10:17:02;17.80;99.90
23114;DHT22;11726;50.122;8.832;2023-10-09T10:22:24;17.90;99.90
23114;DHT22;11726;50.122;8.832;2023-10-09T10:24:54;17.90;99.90
23114;DHT22;11726;50.122;8.832;2023-10-09T10:27:21;17.90;99.90
23114;DHT22;11726;50.122;8.832;2023-10-09T10:32:58;17.90;99.90
23114;DHT22;11726;50.122;8.832;2023-10-09T10:35:36;17.90;99.90
23114;DHT22;11726;50.122;8.832;2023-10-09T10:38:25;18.00;99.90
23114;DHT22;11726;50.122;8.832;2023-10-09T10:40:51;18.00;99.90
23114;DHT22;11726;50.122;8.832;2023-10-09T10:43:27;18.00;99.90
23114;DHT22;11726;50.122;8.832;2023-10-09T10:46:13;18.20;99.90
23114;DHT22;11726;50.122;8.832;2023-10-09T10:48:51;18.30;99.90
23114;DHT22;11726;50.122;8.832;2023-10-09T10:51:27;18.40;99.90
23114;DHT22;11726;50.122;8.832;2023-10-09T10:54:06;18.40;99.90
23114;DHT22;11726;50.122;8.832;2023-10-09T10:56:52;18.40;99.90
23114;DHT22;11726;50.122;8.832;2023-10-09T10:59:19;18.50;99.90
23114;DHT22;11726;50.122;8.832;2023-10-09T11:01:56;18.60;99.90
23114;DHT22;11726;50.122;8.832;2023-10-09T11:04:27;18.70;99.90
23114;DHT22;11726;50.122;8.832;2023-10-09T11:07:06;18.90;99.90
23114;DHT22;11726;50.122;8.832;2023-10-09T11:09:52;19.00;99.90
23114;DHT22;11726;50.122;8.832;2023-10-09T11:15:09;19.10;99.90
23114;DHT22;11726;50.122;8.832;2023-10-09T11:18:06;19.20;99.90
23114;DHT22;11726;50.122;8.832;2023-10-09T11:20:44;19.30;99.90
23114;DHT22;11726;50.122;8.832;2023-10-09T11:23:31;19.40;99.90
23114;DHT22;11726;50.122;8.832;2023-10-09T11:26:02;19.40;99.90
23114;DHT22;11726;50.122;8.832;2023-10-09T11:29:11;19.40;99.90
23114;DHT22;11726;50.122;8.832;2023-10-09T11:34:28;19.50;99.90
23114;DHT22;11726;50.122;8.832;2023-10-09T11:39:39;19.80;99.90
23114;DHT22;11726;50.122;8.832;2023-10-09T11:42:28;19.90;99.90
23114;DHT22;11726;50.122;8.832;2023-10-09T11:45:21;20.00;99.90
23114;DHT22;11726;50.122;8.832;2023-10-09T11:47:51;20.00;99.90
23114;DHT22;11726;50.122;8.832;2023-10-09T11:50:43;20.10;99.90
23114;DHT22;11726;50.122;8.832;2023-10-09T11:53:16;20.20;99.90
23114;DHT22;11726;50.122;8.832;2023-10-09T11:56:00;20.20;99.90
23114;DHT22;11726;50.122;8.832;2023-10-09T11:58:27;20.20;99.90
23114;DHT22;11726;50.122;8.832;2023-10-09T12:00:54;20.20;99.90
23114;DHT22;11726;50.122;8.832;2023-10-09T12:03:45;20.20;99.90
23114;DHT22;11726;50.122;8.832;2023-10-09T12:06:17;20.30;99.90
23114;DHT22;11726;50.122;8.832;2023-10-09T12:08:50;20.30;99.90
23114;DHT22;11726;50.122;8.832;2023-10-09T12:11:16;20.30;99.90
23114;DHT22;11726;50.122;8.832;2023-10-09T12:13:50;20.40;99.90
23114;DHT22;11726;50.122;8.832;2023-10-09T12:16:23;20.30;99.90
23114;DHT22;11726;50.122;8.832;2023-10-09T12:18:55;20.30;99.90
23114;DHT22;11726;50.122;8.832;2023-10-09T12:21:21;20.30;99.90
23114;DHT22;11726;50.122;8.832;2023-10-09T12:23:50;20.30;99.90
23114;DHT22;11726;50.122;8.832;2023-10-09T12:26:16;20.30;99.90
23114;DHT22;11726;50.122;8.832;2023-10-09T12:28:44;20.30;99.90
23114;DHT22;11726;50.122;8.832;2023-10-09T12:31:13;20.30;99.90
23114;DHT22;11726;50.122;8.832;2023-10-09T12:33:47;20.20;99.90
23114;DHT22;11726;50.122;8.832;2023-10-09T12:36:18;20.20;99.90
23114;DHT22;11726;50.122;8.832;2023-10-09T12:38:47;20.10;99.90
23114;DHT22;11726;50.122;8.832;2023-10-09T12:41:21;20.10;99.90
23114;DHT22;11726;50.122;8.832;2023-10-09T12:43:55;20.10;99.90
23114;DHT22;11726;50.122;8.832;2023-10-09T12:46:24;20.10;99.90
23114;DHT22;11726;50.122;8.832;2023-10-09T12:48:52;20.10;99.90
23114;DHT22;11726;50.122;8.832;2023-10-09T12:51:22;20.20;99.90
23114;DHT22;11726;50.122;8.832;2023-10-09T12:53:56;20.30;99.90
23114;DHT22;11726;50.122;8.832;2023-10-09T12:56:28;20.30;99.90
23114;DHT22;11726;50.122;8.832;2023-10-09T12:59:04;20.40;99.90
23114;DHT22;11726;50.122;8.832;2023-10-09T13:01:32;20.40;99.90
23114;DHT22;11726;50.122;8.832;2023-10-09T13:04:12;20.40;99.90
23114;DHT22;11726;50.122;8.832;2023-10-09T13:06:42;20.40;99.90
23114;DHT22;11726;50.122;8.832;2023-10-09T13:09:14;20.40;99.90
23114;DHT22;11726;50.122;8.832;2023-10-09T13:11:42;20.50;99.90
23114;DHT22;11726;50.122;8.832;2023-10-09T13:14:10;20.50;99.90
23114;DHT22;11726;50.122;8.832;2023-10-09T13:16:49;20.50;99.90
23114;DHT22;11726;50.122;8.832;2023-10-09T13:19:20;20.50;99.90
23114;DHT22;11726;50.122;8.832;2023-10-09T13:21:51;20.60;99.90
23114;DHT22;11726;50.122;8.832;2023-10-09T13:24:17;20.60;99.90
23114;DHT22;11726;50.122;8.832;2023-10-09T13:26:46;20.50;99.90
23114;DHT22;11726;50.122;8.832;2023-10-09T13:29:18;20.50;99.90
23114;DHT22;11726;50.122;8.832;2023-10-09T13:31:51;20.50;99.90
23114;DHT22;11726;50.122;8.832;2023-10-09T13:34:19;20.50;99.90
23114;DHT22;11726;50.122;8.832;2023-10-09T13:36:46;20.40;99.90
23114;DHT22;11726;50.122;8.832;2023-10-09T13:39:25;20.40;99.90
23114;DHT22;11726;50.122;8.832;2023-10-09T13:41:57;20.40;99.90
23114;DHT22;11726;50.122;8.832;2023-10-09T13:44:33;20.50;99.90
23114;DHT22;11726;50.122;8.832;2023-10-09T13:47:01;20.40;99.90
23114;DHT22;11726;50.122;8.832;2023-10-09T13:49:29;20.40;99.90
23114;DHT22;11726;50.122;8.832;2023-10-09T13:52:00;20.50;99.90
23114;DHT22;11726;50.122;8.832;2023-10-09T13:54:29;20.50;99.90
23114;DHT22;11726;50.122;8.832;2023-10-09T13:56:59;20.40;99.90
23114;DHT22;11726;50.122;8.832;2023-10-09T13:59:26;20.40;99.90
23114;DHT22;11726;50.122;8.832;2023-10-09T14:01:53;20.40;99.90
23114;DHT22;11726;50.122;8.832;2023-10-09T14:04:23;20.30;99.90
23114;DHT22;11726;50.122;8.832;2023-10-09T14:06:50;20.30;99.90
23114;DHT22;11726;50.122;8.832;2023-10-09T14:09:24;20.30;99.90
23114;DHT22;11726;50.122;8.832;2023-10-09T14:12:12;20.40;99.90
23114;DHT22;11726;50.122;8.832;2023-10-09T14:14:44;20.40;99.90
23114;DHT22;11726;50.122;8.832;2023-10-09T14:17:15;20.30;99.90
23114;DHT22;11726;50.122;8.832;2023-10-09T14:19:50;20.30;99.90
23114;DHT22;11726;50.122;8.832;2023-10-09T14:22:19;20.30;99.90
23114;DHT22;11726;50.122;8.832;2023-10-09T14:24:48;20.20;99.90
23114;DHT22;11726;50.122;8.832;2023-10-09T14:27:23;20.20;99.90
23114;DHT22;11726;50.122;8.832;2023-10-09T14:29:56;20.20;99.90
23114;DHT22;11726;50.122;8.832;2023-10-09T14:32:26;20.20;99.90
23114;DHT22;11726;50.122;8.832;2023-10-09T14:35:01;20.20;99.90
23114;DHT22;11726;50.122;8.832;2023-10-09T14:37:28;20.10;99.90
23114;DHT22;11726;50.122;8.832;2023-10-09T14:39:56;20.00;99.90
23114;DHT22;11726;50.122;8.832;2023-10-09T14:42:23;20.00;99.90
23114;DHT22;11726;50.122;8.832;2023-10-09T14:44:54;20.10;99.90
23114;DHT22;11726;50.122;8.832;2023-10-09T14:47:22;20.10;99.90
23114;DHT22;11726;50.122;8.832;2023-10-09T14:49:49;20.00;99.90
23114;DHT22;11726;50.122;8.832;2023-10-09T14:52:16;19.90;99.90
23114;DHT22;11726;50.122;8.832;2023-10-09T14:54:43;19.90;99.90
23114;DHT22;11726;50.122;8.832;2023-10-09T14:57:14;19.80;99.90
23114;DHT22;11726;50.122;8.832;2023-10-09T14:59:41;19.80;99.90
23114;DHT22;11726;50.122;8.832;2023-10-09T15:02:10;19.70;99.90
23114;DHT22;11726;50.122;8.832;2023-10-09T15:04:39;19.70;99.90
23114;DHT22;11726;50.122;8.832;2023-10-09T15:07:07;19.70;99.90
23114;DHT22;11726;50.122;8.832;2023-10-09T15:09:35;19.70;99.90
23114;DHT22;11726;50.122;8.832;2023-10-09T15:12:03;19.70;99.90
23114;DHT22;11726;50.122;8.832;2023-10-09T15:14:33;19.70;99.90
23114;DHT22;11726;50.122;8.832;2023-10-09T15:17:00;19.60;99.90
23114;DHT22;11726;50.122;8.832;2023-10-09T15:19:27;19.60;99.90
23114;DHT22;11726;50.122;8.832;2023-10-09T15:21:59;19.60;99.90
23114;DHT22;11726;50.122;8.832;2023-10-09T15:24:26;19.50;99.90
23114;DHT22;11726;50.122;8.832;2023-10-09T15:26:54;19.50;99.90
23114;DHT22;11726;50.122;8.832;2023-10-09T15:29:28;19.60;99.90
23114;DHT22;11726;50.122;8.832;2023-10-09T15:31:55;19.60;99.90
23114;DHT22;11726;50.122;8.832;2023-10-09T15:34:22;19.70;99.90
23114;DHT22;11726;50.122;8.832;2023-10-09T15:36:50;19.60;99.90
23114;DHT22;11726;50.122;8.832;2023-10-09T15:39:19;19.50;99.90
23114;DHT22;11726;50.122;8.832;2023-10-09T15:41:46;19.50;99.90
23114;DHT22;11726;50.122;8.832;2023-10-09T15:44:13;19.50;99.90
23114;DHT22;11726;50.122;8.832;2023-10-09T15:46:40;19.50;99.90
23114;DHT22;11726;50.122;8.832;2023-10-09T15:49:10;19.50;99.90
23114;DHT22;11726;50.122;8.832;2023-10-09T15:51:38;19.50;99.90
23114;DHT22;11726;50.122;8.832;2023-10-09T15:54:05;19.50;99.90
23114;DHT22;11726;50.122;8.832;2023-10-09T15:56:32;19.50;99.90
23114;DHT22;11726;50.122;8.832;2023-10-09T15:59:01;19.40;99.90
23114;DHT22;11726;50.122;8.832;2023-10-09T16:01:28;19.40;99.90
23114;DHT22;11726;50.122;8.832;2023-10-09T16:03:55;19.30;99.90
23114;DHT22;11726;50.122;8.832;2023-10-09T16:06:22;19.20;99.90
23114;DHT22;11726;50.122;8.832;2023-10-09T16:08:53;19.20;99.90
23114;DHT22;11726;50.122;8.832;2023-10-09T16:11:21;19.20;99.90
23114;DHT22;11726;50.122;8.832;2023-10-09T16:13:52;19.10;99.90
23114;DHT22;11726;50.122;8.832;2023-10-09T16:16:27;19.00;99.90
23114;DHT22;11726;50.122;8.832;2023-10-09T16:18:56;19.00;99.90
23114;DHT22;11726;50.122;8.832;2023-10-09T16:21:24;18.90;99.90
23114;DHT22;11726;50.122;8.832;2023-10-09T16:23:51;18.80;99.90
23114;DHT22;11726;50.122;8.832;2023-10-09T16:26:18;18.80;99.90
23114;DHT22;11726;50.122;8.832;2023-10-09T16:28:46;18.70;99.90
23114;DHT22;11726;50.122;8.832;2023-10-09T16:31:14;18.70;99.90
23114;DHT22;11726;50.122;8.832;2023-10-09T16:33:46;18.70;99.90
23114;DHT22;11726;50.122;8.832;2023-10-09T16:36:16;18.60;99.90